Startpagina
METAR-TAF:

METAR-TAF

Vliegvelden :

Port Moresby, Papoea-Nieuw-Guinea

Luchthaven Port Moresby

breedte: 09-26S, lengte: 147-13E, hoogte: 38 m

Actueel weer

Dit bericht is 37 minuten geleden gemaakt, om 07:00 UTC
Wind 8 kt uit het zuidzuidoosten
Temperatuur 29°C
Vochtigheid 74%
Druk 1006 hPa
Zicht 10 km of meer
Weinig wolken op 2000 ft, Cumulonimbus.
Weinig wolken op 2000 ft
Gebroken wolken op 30000 ft

METAR: AYPY 240700Z 16008KT 9999 FEW020CB FEW020 BKN300 29/24 Q1006 RMK/ CB TO N/HZ

Tijdstip: 17:37 (07:37 UTC)

Verwachting

Dit bericht is 5 uur en het 7 minuten geleden gemaakt, om 02:30 UTC
Verwachting geldig van 24 om 06 UTC tot 25 om 06 UTC
Wind 8 kt uit het zuidzuidoosten
Zicht 10 km of meer
Verspreide wolken op 2000 ft
Van 24 om 1000 UTC
Wind 3 kt uit variabele richting
Zicht 10 km of meer
Verspreide wolken op 4000 ft

TAF: AYPY 240230Z 2406/2506 16008KT 9999 SCT020 FM241000 VRB03KT 9999 SCT040

Waarnemingen en weersverwachtingen van meer dan 4000 vliegvelden (METAR en TAF).

De beschikbare stations zijn de gele en rode punten op de kaart.

Ga met uw muis naar het station om de naam te zien.

Klik dan om waarnemingen en weersverwachtingen te zien.

kaart wijzigen: klik op de groene knoppen met een zwart kruis om in te zoomen, op de groene knop met een streepje om uit te zoomen of op de groene pijlen voor aangrenzende kaarten.


METAR-TAF: